Time;durP1;ratioP1;P1;durP2;ratioP2;P2;SDS_P1;SDS_P2;PMS_P1;PMS_P2;Temp;Humidity;BMP_temperature;BMP_pressure;BME280_temperature;BME280_humidity;BME280_pressure;Samples;Min_cycle;Max_cycle;Signal;HPM_P1;HPM_P2
2023/11/24 00:01:08;;;;;;;11.50;2.83;;;;;;;;;;5000375;28;20812;-82
2023/11/24 00:03:34;;;;;;;16.90;3.10;;;;;;;;;;5009617;28;20421;-81
2023/11/24 00:06:00;;;;;;;13.33;2.90;;;;;;;;;;5011847;28;20433;-80
2023/11/24 00:08:26;;;;;;;11.80;3.90;;;;;;;;;;5015916;28;20421;-82
2023/11/24 00:10:52;;;;;;;18.17;3.10;;;;;;;;;;5004456;28;20414;-81
2023/11/24 00:13:18;;;;;;;15.93;3.47;;;;;;;;;;5008438;28;20515;-80
2023/11/24 00:15:45;;;;;;;10.77;2.92;;;;;;;;;;5010543;28;20511;-80
2023/11/24 00:18:12;;;;;;;13.88;3.03;;;;;;;;;;5008045;28;20724;-80
2023/11/24 00:20:38;;;;;;;13.05;3.42;;;;;;;;;;5011751;28;20223;-82
2023/11/24 00:23:04;;;;;;;9.13;2.30;;;;;;;;;;5006124;28;20577;-82
2023/11/24 00:25:32;;;;;;;19.60;4.40;;;;;;;;;;5016338;28;20187;-84
2023/11/24 00:27:58;;;;;;;14.77;4.10;;;;;;;;;;4996928;28;20477;-82
2023/11/24 00:30:24;;;;;;;14.40;4.70;;;;;;;;;;5006204;28;20278;-82
2023/11/24 00:32:50;;;;;;;24.27;3.65;;;;;;;;;;5007256;28;20433;-81
2023/11/24 00:35:16;;;;;;;18.38;3.40;;;;;;;;;;5003034;28;20180;-81
2023/11/24 00:37:42;;;;;;;20.65;3.63;;;;;;;;;;5010840;28;20191;-81
2023/11/24 00:40:14;;;;;;;11.23;3.23;;;;;;;;;;5006494;28;20261;-80
2023/11/24 00:42:40;;;;;;;18.58;3.05;;;;;;;;;;5004176;28;20849;-81
2023/11/24 00:45:07;;;;;;;18.63;3.33;;;;;;;;;;5012590;28;20238;-81
2023/11/24 00:47:33;;;;;;;16.98;3.72;;;;;;;;;;5012371;28;20656;-81
2023/11/24 00:49:59;;;;;;;29.27;4.20;;;;;;;;;;5011339;28;20207;-80
2023/11/24 00:52:28;;;;;;;21.60;3.60;;;;;;;;;;5016618;28;20248;-82
2023/11/24 00:54:54;;;;;;;18.40;3.60;;;;;;;;;;5010788;28;20425;-81
2023/11/24 00:57:19;;;;;;;27.23;4.23;;;;;;;;;;5008741;28;20197;-81
2023/11/24 00:59:45;;;;;;;33.90;5.40;;;;;;;;;;5013342;28;20518;-80
2023/11/24 01:02:12;;;;;;;23.47;4.17;;;;;;;;;;5017013;28;20441;-80
2023/11/24 01:04:38;;;;;;;28.27;5.53;;;;;;;;;;5010433;28;20433;-81
2023/11/24 01:07:06;;;;;;;16.97;3.67;;;;;;;;;;5014320;28;20175;-79
2023/11/24 01:09:32;;;;;;;17.02;4.00;;;;;;;;;;5016591;28;20458;-80
2023/11/24 01:11:58;;;;;;;27.70;6.20;;;;;;;;;;5007841;28;20559;-80
2023/11/24 01:14:24;;;;;;;22.97;4.93;;;;;;;;;;5011030;28;20432;-80
2023/11/24 01:16:50;;;;;;;17.50;4.27;;;;;;;;;;5016710;28;20500;-81
2023/11/24 01:19:15;;;;;;;13.77;3.73;;;;;;;;;;5013927;28;20434;-80
2023/11/24 01:21:41;;;;;;;22.37;4.77;;;;;;;;;;5014368;28;20455;-80
2023/11/24 01:24:08;;;;;;;19.83;3.10;;;;;;;;;;5014060;28;20410;-80
2023/11/24 01:26:34;;;;;;;21.90;4.13;;;;;;;;;;5012256;28;20486;-79
2023/11/24 01:29:02;;;;;;;11.40;2.60;;;;;;;;;;5013989;28;20190;-79
2023/11/24 01:31:30;;;;;;;13.18;3.80;;;;;;;;;;5013162;28;20182;-78
2023/11/24 01:33:56;;;;;;;35.13;4.82;;;;;;;;;;5008081;28;20187;-79
2023/11/24 01:36:22;;;;;;;26.80;5.03;;;;;;;;;;5009697;28;20191;-79
2023/11/24 01:38:50;;;;;;;17.67;3.63;;;;;;;;;;5015588;28;20177;-79
2023/11/24 01:41:17;;;;;;;22.98;4.75;;;;;;;;;;5011661;28;20468;-78
2023/11/24 01:43:56;;;;;;;20.00;3.50;;;;;;;;;;5012491;28;20554;-78
2023/11/24 01:46:23;;;;;;;19.15;3.60;;;;;;;;;;5014255;28;20266;-78
2023/11/24 01:48:49;;;;;;;16.17;4.32;;;;;;;;;;5012329;28;20191;-78
2023/11/24 01:51:15;;;;;;;17.07;3.80;;;;;;;;;;5015059;28;20179;-77
2023/11/24 01:53:41;;;;;;;13.50;3.00;;;;;;;;;;5019425;28;20856;-77
2023/11/24 01:56:07;;;;;;;15.88;3.20;;;;;;;;;;5014847;28;20706;-77
2023/11/24 01:58:34;;;;;;;17.92;3.33;;;;;;;;;;5010822;28;20675;-78
2023/11/24 02:01:00;;;;;;;16.17;3.85;;;;;;;;;;5010505;28;20673;-77
2023/11/24 02:03:26;;;;;;;15.73;3.08;;;;;;;;;;5011724;28;20183;-77
2023/11/24 02:05:52;;;;;;;24.47;4.57;;;;;;;;;;5012200;28;20238;-78
2023/11/24 02:08:18;;;;;;;15.00;3.90;;;;;;;;;;5019615;28;20468;-77
2023/11/24 02:10:44;;;;;;;16.08;4.35;;;;;;;;;;5016948;28;20634;-78
2023/11/24 02:13:10;;;;;;;16.48;3.28;;;;;;;;;;5010364;28;20191;-78
2023/11/24 02:15:37;;;;;;;23.73;4.60;;;;;;;;;;5010155;28;20639;-78
2023/11/24 02:18:03;;;;;;;14.15;3.10;;;;;;;;;;5015009;28;20197;-77
2023/11/24 02:20:33;;;;;;;16.90;3.50;;;;;;;;;;5012344;28;20571;-77
2023/11/24 02:22:59;;;;;;;13.38;2.72;;;;;;;;;;5016980;28;20194;-77
2023/11/24 02:25:25;;;;;;;14.23;3.43;;;;;;;;;;5015592;28;20193;-77
2023/11/24 02:27:51;;;;;;;26.33;3.42;;;;;;;;;;5007530;28;20572;-83
2023/11/24 02:30:17;;;;;;;18.03;3.30;;;;;;;;;;5007343;28;20227;-81
2023/11/24 02:32:44;;;;;;;14.45;3.25;;;;;;;;;;5011655;28;20783;-79
2023/11/24 02:35:10;;;;;;;12.80;3.10;;;;;;;;;;5012484;28;20185;-79
2023/11/24 02:37:36;;;;;;;15.38;3.33;;;;;;;;;;5024426;28;20188;-79
2023/11/24 02:40:04;;;;;;;17.37;3.73;;;;;;;;;;5002100;28;20645;-79
2023/11/24 02:42:30;;;;;;;13.20;2.42;;;;;;;;;;5015100;28;20508;-79
2023/11/24 02:44:56;;;;;;;16.10;4.93;;;;;;;;;;5012536;28;20191;-79
2023/11/24 02:47:22;;;;;;;16.52;3.67;;;;;;;;;;5005491;28;20203;-79
2023/11/24 02:49:48;;;;;;;25.40;4.30;;;;;;;;;;5012680;28;20174;-80
2023/11/24 02:52:14;;;;;;;19.17;3.70;;;;;;;;;;5020672;28;20512;-80
2023/11/24 02:54:40;;;;;;;6.67;1.77;;;;;;;;;;5022420;28;20423;-80
2023/11/24 02:57:06;;;;;;;12.85;2.60;;;;;;;;;;5010653;28;20458;-79
2023/11/24 02:59:32;;;;;;;10.43;2.43;;;;;;;;;;5010525;28;20670;-80
2023/11/24 03:01:58;;;;;;;12.03;2.37;;;;;;;;;;5008929;28;20786;-79
2023/11/24 03:04:24;;;;;;;13.40;2.65;;;;;;;;;;5008734;28;20521;-79
2023/11/24 03:06:52;;;;;;;9.25;1.85;;;;;;;;;;5019850;28;20546;-79
2023/11/24 03:09:22;;;;;;;8.30;2.33;;;;;;;;;;5013338;28;20186;-78
2023/11/24 03:11:48;;;;;;;7.18;2.13;;;;;;;;;;5012905;28;20192;-79
2023/11/24 03:14:15;;;;;;;9.00;1.90;;;;;;;;;;5012378;28;20184;-79
2023/11/24 03:16:41;;;;;;;14.80;2.90;;;;;;;;;;5012017;28;20196;-80
2023/11/24 03:19:09;;;;;;;7.87;2.13;;;;;;;;;;5015780;28;20434;-79
2023/11/24 03:21:35;;;;;;;9.00;2.13;;;;;;;;;;5017307;28;20523;-79
2023/11/24 03:24:01;;;;;;;14.00;2.57;;;;;;;;;;5012451;28;20201;-79
2023/11/24 03:26:27;;;;;;;10.13;2.40;;;;;;;;;;5012209;28;20435;-79
2023/11/24 03:28:53;;;;;;;13.32;3.80;;;;;;;;;;5005276;28;20436;-79
2023/11/24 03:31:19;;;;;;;12.60;2.35;;;;;;;;;;5014059;28;20189;-79
2023/11/24 03:33:45;;;;;;;14.98;3.60;;;;;;;;;;5022291;28;20186;-79
2023/11/24 03:36:11;;;;;;;19.23;2.83;;;;;;;;;;5011160;28;20535;-79
2023/11/24 03:38:37;;;;;;;15.53;3.23;;;;;;;;;;5015069;28;20452;-79
2023/11/24 03:41:03;;;;;;;16.13;2.78;;;;;;;;;;5009933;28;20507;-79
2023/11/24 03:43:29;;;;;;;18.37;3.77;;;;;;;;;;5009639;28;20199;-79
2023/11/24 03:45:56;;;;;;;13.73;2.70;;;;;;;;;;5008419;28;20438;-79
2023/11/24 03:48:22;;;;;;;15.93;4.10;;;;;;;;;;5017203;28;20446;-79
2023/11/24 03:50:53;;;;;;;24.83;3.93;;;;;;;;;;5018961;28;20277;-79
2023/11/24 03:53:19;;;;;;;15.55;2.97;;;;;;;;;;5009459;28;20911;-79
2023/11/24 03:55:47;;;;;;;13.23;2.80;;;;;;;;;;5017207;28;20185;-79
2023/11/24 03:58:13;;;;;;;15.10;3.45;;;;;;;;;;5009569;28;20210;-78
2023/11/24 04:00:39;;;;;;;7.18;2.60;;;;;;;;;;5001428;28;20249;-79
2023/11/24 04:03:05;;;;;;;7.07;2.17;;;;;;;;;;5012072;28;20214;-78
2023/11/24 04:05:31;;;;;;;14.25;2.55;;;;;;;;;;5010531;28;20517;-79
2023/11/24 04:07:57;;;;;;;18.75;2.45;;;;;;;;;;5013043;28;20238;-78
2023/11/24 04:10:23;;;;;;;8.15;3.65;;;;;;;;;;5016497;28;20197;-78
2023/11/24 04:12:49;;;;;;;6.63;2.08;;;;;;;;;;5017636;28;20183;-79
2023/11/24 04:15:15;;;;;;;13.33;2.50;;;;;;;;;;5011326;28;20273;-79
2023/11/24 04:17:41;;;;;;;12.48;3.22;;;;;;;;;;5014510;28;20424;-78
2023/11/24 04:20:11;;;;;;;18.40;3.60;;;;;;;;;;5012661;28;20199;-78
2023/11/24 04:22:37;;;;;;;12.23;3.30;;;;;;;;;;5008874;28;20440;-78
2023/11/24 04:25:04;;;;;;;15.35;2.60;;;;;;;;;;5004550;28;20232;-78
2023/11/24 04:27:30;;;;;;;9.15;2.13;;;;;;;;;;5008894;28;20303;-78
2023/11/24 04:29:56;;;;;;;14.65;3.08;;;;;;;;;;5014111;28;20222;-78
2023/11/24 04:32:23;;;;;;;13.77;3.38;;;;;;;;;;5008357;28;20539;-77
2023/11/24 04:34:49;;;;;;;13.63;2.20;;;;;;;;;;5006300;28;20266;-78
2023/11/24 04:37:18;;;;;;;13.77;2.42;;;;;;;;;;5002392;28;20203;-78
2023/11/24 04:39:44;;;;;;;13.65;1.85;;;;;;;;;;5008909;28;20208;-78
2023/11/24 04:42:10;;;;;;;12.52;4.35;;;;;;;;;;5011751;28;20214;-78
2023/11/24 04:44:36;;;;;;;19.20;2.60;;;;;;;;;;5019542;28;20561;-79
2023/11/24 04:47:03;;;;;;;9.05;1.88;;;;;;;;;;5006140;28;20534;-78
2023/11/24 04:49:29;;;;;;;13.07;2.13;;;;;;;;;;5013311;28;20186;-78
2023/11/24 04:51:56;;;;;;;11.00;1.97;;;;;;;;;;5007066;28;20188;-78
2023/11/24 04:54:22;;;;;;;15.95;2.20;;;;;;;;;;5010541;28;20457;-78
2023/11/24 04:56:48;;;;;;;10.93;2.10;;;;;;;;;;5005532;28;20193;-78
2023/11/24 04:59:14;;;;;;;12.00;2.15;;;;;;;;;;5009610;28;20497;-78
2023/11/24 05:01:40;;;;;;;9.60;2.70;;;;;;;;;;5003519;28;20184;-79
2023/11/24 05:04:06;;;;;;;10.37;2.33;;;;;;;;;;5011816;28;20862;-78
2023/11/24 05:06:32;;;;;;;7.67;1.93;;;;;;;;;;5004034;28;20418;-78
2023/11/24 05:08:58;;;;;;;13.40;2.57;;;;;;;;;;5021031;28;20417;-78
2023/11/24 05:11:24;;;;;;;5.93;2.37;;;;;;;;;;5015560;28;20449;-77
2023/11/24 05:13:50;;;;;;;10.38;2.10;;;;;;;;;;5009266;28;20417;-77
2023/11/24 05:16:16;;;;;;;14.45;3.33;;;;;;;;;;5011692;28;20715;-78
2023/11/24 05:18:42;;;;;;;11.55;2.47;;;;;;;;;;5014788;28;20178;-77
2023/11/24 05:21:08;;;;;;;7.83;2.23;;;;;;;;;;5008772;28;20225;-77
2023/11/24 05:23:34;;;;;;;13.30;3.50;;;;;;;;;;5010646;28;20981;-78
2023/11/24 05:26:01;;;;;;;10.77;2.35;;;;;;;;;;5010172;28;20517;-78
2023/11/24 05:28:27;;;;;;;11.35;2.42;;;;;;;;;;5012408;28;20242;-78
2023/11/24 05:30:53;;;;;;;10.63;3.30;;;;;;;;;;5009708;28;20275;-78
2023/11/24 05:33:19;;;;;;;7.55;2.38;;;;;;;;;;5013058;28;20181;-78
2023/11/24 05:35:45;;;;;;;14.23;2.23;;;;;;;;;;5021654;28;20671;-78
2023/11/24 05:38:11;;;;;;;12.70;3.17;;;;;;;;;;5016133;28;20899;-78
2023/11/24 05:40:37;;;;;;;10.23;2.50;;;;;;;;;;5012742;28;20865;-78
2023/11/24 05:43:03;;;;;;;9.40;2.37;;;;;;;;;;5010305;28;20445;-78
2023/11/24 05:45:30;;;;;;;13.70;2.25;;;;;;;;;;5009415;28;20434;-77
2023/11/24 05:47:56;;;;;;;5.93;2.15;;;;;;;;;;5007693;28;20179;-78
2023/11/24 05:50:22;;;;;;;6.00;2.33;;;;;;;;;;5013805;28;20594;-78
2023/11/24 05:52:49;;;;;;;8.73;1.77;;;;;;;;;;5007925;28;20197;-77
2023/11/24 05:55:15;;;;;;;9.68;2.55;;;;;;;;;;5010356;28;20430;-78
2023/11/24 05:57:41;;;;;;;12.48;2.28;;;;;;;;;;5007312;28;20227;-77
2023/11/24 06:00:09;;;;;;;6.90;2.15;;;;;;;;;;5008505;28;20559;-78
2023/11/24 06:02:35;;;;;;;8.68;2.00;;;;;;;;;;5013196;28;20192;-78
2023/11/24 06:05:01;;;;;;;11.52;1.95;;;;;;;;;;5014938;28;20174;-78
2023/11/24 06:07:27;;;;;;;7.25;2.03;;;;;;;;;;5013814;28;20198;-78
2023/11/24 06:09:54;;;;;;;17.10;2.23;;;;;;;;;;5004384;28;20190;-77
2023/11/24 06:12:19;;;;;;;10.57;2.60;;;;;;;;;;5015360;28;20472;-77
2023/11/24 06:14:47;;;;;;;8.33;1.80;;;;;;;;;;5004671;28;20635;-78
2023/11/24 06:17:13;;;;;;;5.70;1.90;;;;;;;;;;5014362;28;20430;-77
2023/11/24 06:19:38;;;;;;;7.45;1.70;;;;;;;;;;5006191;28;20221;-77
2023/11/24 06:22:04;;;;;;;13.47;2.07;;;;;;;;;;5014608;28;20260;-78
2023/11/24 06:24:30;;;;;;;10.73;2.00;;;;;;;;;;5018140;28;20435;-77
2023/11/24 06:26:56;;;;;;;4.60;1.90;;;;;;;;;;5020405;28;20470;-78
2023/11/24 06:29:24;;;;;;;14.30;2.30;;;;;;;;;;5014275;28;20440;-77
2023/11/24 06:31:50;;;;;;;7.15;1.80;;;;;;;;;;5011499;28;20928;-77
2023/11/24 06:34:17;;;;;;;12.60;2.40;;;;;;;;;;5015729;28;20192;-78
2023/11/24 06:36:43;;;;;;;12.55;2.60;;;;;;;;;;5014956;28;20407;-78
2023/11/24 06:39:09;;;;;;;14.20;2.22;;;;;;;;;;5021026;28;20196;-77
2023/11/24 06:41:36;;;;;;;6.88;1.80;;;;;;;;;;5009777;28;20212;-77
2023/11/24 06:44:01;;;;;;;11.20;2.25;;;;;;;;;;5014740;28;20192;-79
2023/11/24 06:46:27;;;;;;;13.03;2.40;;;;;;;;;;5018107;28;20195;-79
2023/11/24 06:48:53;;;;;;;5.93;1.97;;;;;;;;;;5009271;28;20788;-79
2023/11/24 06:51:20;;;;;;;8.40;1.83;;;;;;;;;;5013625;28;20430;-78
2023/11/24 06:53:46;;;;;;;9.82;2.63;;;;;;;;;;5010438;28;20425;-78
2023/11/24 06:56:12;;;;;;;8.35;2.03;;;;;;;;;;5016426;28;20183;-79
2023/11/24 06:58:38;;;;;;;19.00;2.55;;;;;;;;;;5018309;28;20188;-78
2023/11/24 07:01:04;;;;;;;6.35;1.55;;;;;;;;;;5021160;28;20207;-79
2023/11/24 07:03:32;;;;;;;8.18;1.80;;;;;;;;;;5014788;28;20637;-79
2023/11/24 07:05:59;;;;;;;7.50;2.00;;;;;;;;;;5013802;28;20195;-80
2023/11/24 07:08:25;;;;;;;18.48;2.90;;;;;;;;;;5012217;28;20183;-79
2023/11/24 07:10:51;;;;;;;8.97;2.03;;;;;;;;;;5011837;28;20182;-79
2023/11/24 07:13:17;;;;;;;11.45;2.50;;;;;;;;;;5010410;28;20419;-79
2023/11/24 07:15:43;;;;;;;8.07;2.33;;;;;;;;;;5007055;28;20222;-79
2023/11/24 07:18:09;;;;;;;13.10;2.92;;;;;;;;;;5011866;28;20197;-79
2023/11/24 07:20:35;;;;;;;12.40;3.73;;;;;;;;;;5012359;28;20311;-79
2023/11/24 07:23:01;;;;;;;10.57;2.90;;;;;;;;;;5012657;28;20424;-78
2023/11/24 07:25:27;;;;;;;11.27;2.37;;;;;;;;;;5014275;28;20546;-78
2023/11/24 07:27:53;;;;;;;4.57;2.45;;;;;;;;;;5010951;28;20475;-78
2023/11/24 07:30:19;;;;;;;15.45;2.53;;;;;;;;;;5010457;28;20194;-78
2023/11/24 07:32:45;;;;;;;10.88;2.58;;;;;;;;;;5011400;28;20195;-80
2023/11/24 07:35:13;;;;;;;8.50;2.83;;;;;;;;;;5020189;28;20566;-79
2023/11/24 07:37:39;;;;;;;4.95;1.98;;;;;;;;;;5011885;28;20443;-79
2023/11/24 07:40:13;;;;;;;5.88;1.33;;;;;;;;;;5014465;28;20207;-80
2023/11/24 07:42:40;;;;;;;13.63;2.72;;;;;;;;;;5016036;28;20192;-80
2023/11/24 07:45:09;;;;;;;7.72;2.22;;;;;;;;;;5005371;28;20622;-80
2023/11/24 07:47:35;;;;;;;11.38;2.15;;;;;;;;;;5030162;28;20199;-80
2023/11/24 07:50:01;;;;;;;5.22;1.50;;;;;;;;;;5014808;28;20320;-80
2023/11/24 07:52:27;;;;;;;11.25;2.22;;;;;;;;;;5009737;28;20266;-80
2023/11/24 07:54:53;;;;;;;8.47;2.37;;;;;;;;;;5008813;28;20657;-80
2023/11/24 07:57:19;;;;;;;10.10;2.15;;;;;;;;;;5009289;28;20435;-80
2023/11/24 07:59:46;;;;;;;31.70;2.55;;;;;;;;;;5013511;28;20207;-80
2023/11/24 08:02:12;;;;;;;16.40;2.25;;;;;;;;;;5009114;28;20263;-82
2023/11/24 08:04:38;;;;;;;4.80;2.10;;;;;;;;;;5013232;28;20211;-80
2023/11/24 08:07:04;;;;;;;7.53;2.30;;;;;;;;;;5014518;28;20445;-82
2023/11/24 08:09:30;;;;;;;9.98;2.40;;;;;;;;;;5016024;28;20183;-83
2023/11/24 08:11:56;;;;;;;9.73;2.13;;;;;;;;;;5022529;28;20556;-82
2023/11/24 08:14:23;;;;;;;7.10;3.33;;;;;;;;;;5004040;28;20183;-83
2023/11/24 08:16:51;;;;;;;7.55;1.70;;;;;;;;;;5008900;28;20527;-81
2023/11/24 08:19:22;;;;;;;14.63;2.35;;;;;;;;;;5013636;28;20179;-81
2023/11/24 08:21:48;;;;;;;5.43;2.50;;;;;;;;;;5012712;28;20255;-80
2023/11/24 08:24:14;;;;;;;8.25;3.65;;;;;;;;;;5013318;28;20192;-80
2023/11/24 08:26:40;;;;;;;5.00;1.90;;;;;;;;;;5007855;28;20239;-81
2023/11/24 08:29:07;;;;;;;10.57;2.67;;;;;;;;;;5015915;28;20477;-81
2023/11/24 08:31:33;;;;;;;15.90;3.47;;;;;;;;;;5011494;28;20698;-80
2023/11/24 08:33:59;;;;;;;13.15;2.13;;;;;;;;;;5016364;28;20413;-80
2023/11/24 08:36:28;;;;;;;11.77;3.80;;;;;;;;;;5015207;28;20246;-80
2023/11/24 08:38:54;;;;;;;11.20;3.83;;;;;;;;;;5001352;28;20187;-80
2023/11/24 08:41:21;;;;;;;8.73;2.45;;;;;;;;;;5021474;28;20209;-80
2023/11/24 08:43:47;;;;;;;4.13;1.70;;;;;;;;;;5006758;28;20679;-79
2023/11/24 08:46:13;;;;;;;8.23;2.25;;;;;;;;;;5009031;28;20193;-79
2023/11/24 08:48:39;;;;;;;9.23;1.70;;;;;;;;;;5011545;28;20191;-80
2023/11/24 08:51:09;;;;;;;4.88;1.40;;;;;;;;;;5014990;28;20425;-80
2023/11/24 08:53:35;;;;;;;15.25;1.45;;;;;;;;;;5011225;28;20179;-80
2023/11/24 08:56:04;;;;;;;12.35;2.33;;;;;;;;;;5006932;28;20554;-81
2023/11/24 08:58:31;;;;;;;8.73;1.45;;;;;;;;;;5007215;28;20196;-80
2023/11/24 09:00:57;;;;;;;5.82;1.75;;;;;;;;;;5008487;28;20710;-80
2023/11/24 09:03:24;;;;;;;3.83;1.45;;;;;;;;;;5004375;28;20210;-81
2023/11/24 09:05:51;;;;;;;8.25;1.83;;;;;;;;;;5015802;28;20180;-80
2023/11/24 09:08:17;;;;;;;5.95;1.95;;;;;;;;;;5012302;28;20177;-80
2023/11/24 09:10:43;;;;;;;7.67;2.30;;;;;;;;;;5005638;28;20555;-80
2023/11/24 09:13:13;;;;;;;6.83;1.33;;;;;;;;;;5014574;28;20434;-79
2023/11/24 09:15:39;;;;;;;6.82;1.83;;;;;;;;;;5025386;28;20431;-80
2023/11/24 09:18:05;;;;;;;10.45;2.10;;;;;;;;;;5018450;28;20508;-80
2023/11/24 09:20:31;;;;;;;9.85;1.45;;;;;;;;;;5021736;28;20611;-80
2023/11/24 09:22:57;;;;;;;8.03;1.73;;;;;;;;;;5024081;28;20197;-81
2023/11/24 09:25:23;;;;;;;4.33;1.80;;;;;;;;;;5009982;28;20974;-81
2023/11/24 09:27:49;;;;;;;7.70;1.40;;;;;;;;;;5014582;28;20842;-80
2023/11/24 09:30:15;;;;;;;7.18;1.63;;;;;;;;;;5017469;28;20188;-79
2023/11/24 09:32:42;;;;;;;6.07;1.83;;;;;;;;;;5013231;28;20238;-80
2023/11/24 09:35:09;;;;;;;6.32;1.58;;;;;;;;;;5007900;28;20413;-80
2023/11/24 09:37:35;;;;;;;9.18;1.48;;;;;;;;;;5015818;28;20190;-81
2023/11/24 09:40:03;;;;;;;6.10;1.20;;;;;;;;;;5011360;28;20322;-79
2023/11/24 09:42:38;;;;;;;7.38;1.35;;;;;;;;;;5011333;28;20183;-82
2023/11/24 09:45:09;;;;;;;9.20;1.85;;;;;;;;;;5009423;28;20273;-79
2023/11/24 09:47:35;;;;;;;6.40;1.80;;;;;;;;;;5020197;28;20233;-79
2023/11/24 09:50:02;;;;;;;8.20;1.33;;;;;;;;;;5014816;28;20670;-79
2023/11/24 09:52:28;;;;;;;4.68;1.48;;;;;;;;;;5011611;28;20577;-80
2023/11/24 09:54:59;;;;;;;3.03;1.33;;;;;;;;;;5009581;28;20207;-79
2023/11/24 09:57:25;;;;;;;6.63;1.35;;;;;;;;;;5020021;28;20274;-79
2023/11/24 09:59:51;;;;;;;6.70;1.70;;;;;;;;;;5014894;28;20243;-78
2023/11/24 10:02:18;;;;;;;2.38;1.20;;;;;;;;;;5011342;28;20194;-79
2023/11/24 10:04:44;;;;;;;5.07;1.45;;;;;;;;;;5008084;28;20182;-78
2023/11/24 10:07:19;;;;;;;5.40;1.20;;;;;;;;;;5016508;28;20266;-80
2023/11/24 10:09:48;;;;;;;9.70;1.25;;;;;;;;;;5011744;28;20438;-79
2023/11/24 10:12:15;;;;;;;5.63;1.63;;;;;;;;;;5013405;28;20179;-79
2023/11/24 10:14:43;;;;;;;5.65;1.50;;;;;;;;;;5012938;28;20605;-79
2023/11/24 10:17:09;;;;;;;5.03;1.65;;;;;;;;;;5011838;28;20171;-79
2023/11/24 10:19:36;;;;;;;9.43;1.30;;;;;;;;;;5021958;28;20182;-79
2023/11/24 10:22:05;;;;;;;2.75;1.15;;;;;;;;;;5012615;28;20182;-79
2023/11/24 10:24:37;;;;;;;5.07;0.95;;;;;;;;;;5025711;28;20250;-79
2023/11/24 10:27:23;;;;;;;1.80;1.05;;;;;;;;;;5009732;28;20255;-78
2023/11/24 10:29:50;;;;;;;5.25;1.00;;;;;;;;;;5008617;28;20536;-78
2023/11/24 10:32:16;;;;;;;3.65;1.05;;;;;;;;;;5008885;28;20230;-79
2023/11/24 10:34:42;;;;;;;3.70;1.00;;;;;;;;;;5017802;28;20708;-78
2023/11/24 10:37:12;;;;;;;2.95;0.93;;;;;;;;;;5014587;28;20199;-79
2023/11/24 10:39:40;;;;;;;2.47;1.00;;;;;;;;;;5013209;28;20263;-78
2023/11/24 10:42:08;;;;;;;2.72;1.27;;;;;;;;;;5018384;28;20180;-78
2023/11/24 10:44:36;;;;;;;3.10;1.08;;;;;;;;;;5014254;28;20177;-78
2023/11/24 10:47:04;;;;;;;4.10;1.00;;;;;;;;;;5019652;28;20182;-78
2023/11/24 10:49:41;;;;;;;4.35;1.60;;;;;;;;;;5015084;28;20269;-80
2023/11/24 10:52:17;;;;;;;3.17;1.20;;;;;;;;;;5017116;28;20584;-78
2023/11/24 10:54:48;;;;;;;3.45;1.60;;;;;;;;;;5016264;28;20662;-78
2023/11/24 10:57:16;;;;;;;2.67;1.10;;;;;;;;;;5005866;28;20529;-79
2023/11/24 10:59:43;;;;;;;5.50;1.23;;;;;;;;;;5010164;28;20194;-78
2023/11/24 11:02:10;;;;;;;3.78;1.05;;;;;;;;;;5008001;28;20190;-80
2023/11/24 11:04:36;;;;;;;3.65;0.98;;;;;;;;;;5016687;28;20179;-79
2023/11/24 11:07:27;;;;;;;1.65;0.90;;;;;;;;;;5009986;28;20194;-80
2023/11/24 11:09:58;;;;;;;3.05;1.00;;;;;;;;;;5017813;28;20182;-79
2023/11/24 11:12:36;;;;;;;1.95;0.98;;;;;;;;;;5015882;28;20246;-80
2023/11/24 11:15:04;;;;;;;2.60;1.05;;;;;;;;;;5004211;28;20182;-83
2023/11/24 11:17:30;;;;;;;1.33;0.70;;;;;;;;;;5009786;28;20614;-84
2023/11/24 11:20:00;;;;;;;1.80;0.90;;;;;;;;;;5019668;28;20242;-80
2023/11/24 11:22:29;;;;;;;1.98;0.80;;;;;;;;;;5017570;28;20426;-81
2023/11/24 11:24:57;;;;;;;4.97;2.45;;;;;;;;;;5018845;28;20193;-80
2023/11/24 11:27:26;;;;;;;3.80;1.00;;;;;;;;;;5015640;28;20238;-80
2023/11/24 11:29:53;;;;;;;2.17;0.85;;;;;;;;;;5012047;28;20293;-80
2023/11/24 11:32:22;;;;;;;4.45;0.90;;;;;;;;;;5008416;28;20181;-80
2023/11/24 11:34:48;;;;;;;5.28;1.10;;;;;;;;;;5012996;28;20542;-80
2023/11/24 11:37:14;;;;;;;6.47;1.25;;;;;;;;;;5022584;28;20175;-81
2023/11/24 11:39:47;;;;;;;3.50;0.95;;;;;;;;;;5013077;28;20183;-81
2023/11/24 11:42:14;;;;;;;6.55;1.15;;;;;;;;;;5011212;28;20654;-81
2023/11/24 11:44:46;;;;;;;2.08;1.00;;;;;;;;;;5028760;28;20185;-80
2023/11/24 11:47:18;;;;;;;5.28;1.08;;;;;;;;;;5009133;28;20174;-79
2023/11/24 11:49:44;;;;;;;1.90;1.17;;;;;;;;;;5017392;28;20179;-80
2023/11/24 11:52:11;;;;;;;2.15;0.95;;;;;;;;;;5015503;28;20185;-80
2023/11/24 11:54:38;;;;;;;1.50;1.30;;;;;;;;;;5015177;28;20182;-81
2023/11/24 11:57:04;;;;;;;3.45;1.10;;;;;;;;;;5003848;28;20222;-80
2023/11/24 11:59:30;;;;;;;3.15;1.40;;;;;;;;;;5014054;28;20193;-82
2023/11/24 12:01:56;;;;;;;2.50;1.00;;;;;;;;;;5010700;28;20313;-80
2023/11/24 12:04:22;;;;;;;8.68;1.20;;;;;;;;;;5015218;28;20218;-81
2023/11/24 12:06:51;;;;;;;2.50;1.15;;;;;;;;;;5013665;28;20714;-79
2023/11/24 12:09:20;;;;;;;3.45;1.63;;;;;;;;;;5014944;28;20579;-80
2023/11/24 12:11:46;;;;;;;3.42;1.30;;;;;;;;;;5012647;28;20675;-81
2023/11/24 12:14:12;;;;;;;3.80;1.17;;;;;;;;;;5006133;28;20185;-86
2023/11/24 12:16:38;;;;;;;6.82;1.35;;;;;;;;;;5016134;28;20190;-85
2023/11/24 12:19:07;;;;;;;3.38;1.02;;;;;;;;;;5012042;28;20182;-84
2023/11/24 12:21:34;;;;;;;1.50;0.95;;;;;;;;;;5015404;28;20225;-85
2023/11/24 12:24:00;;;;;;;6.68;1.70;;;;;;;;;;5012186;28;20179;-83
2023/11/24 12:26:26;;;;;;;6.03;1.38;;;;;;;;;;5006929;28;20191;-80
2023/11/24 12:28:55;;;;;;;7.22;1.70;;;;;;;;;;5012490;28;20211;-80
2023/11/24 12:31:21;;;;;;;3.33;1.38;;;;;;;;;;5022070;28;20187;-82
2023/11/24 12:33:51;;;;;;;3.53;1.07;;;;;;;;;;5014744;28;20194;-81
2023/11/24 12:36:18;;;;;;;8.80;1.40;;;;;;;;;;5006827;28;20517;-80
2023/11/24 12:38:44;;;;;;;3.17;1.10;;;;;;;;;;5010276;28;20265;-80
2023/11/24 12:41:10;;;;;;;3.55;1.30;;;;;;;;;;5005398;28;20215;-80
2023/11/24 12:43:37;;;;;;;4.78;1.70;;;;;;;;;;5014931;28;20192;-81
2023/11/24 12:46:03;;;;;;;4.82;1.85;;;;;;;;;;5008982;28;20186;-81
2023/11/24 12:48:37;;;;;;;6.57;1.33;;;;;;;;;;5022696;28;20575;-81
2023/11/24 12:51:03;;;;;;;11.32;1.48;;;;;;;;;;5011511;28;20278;-80
2023/11/24 12:53:33;;;;;;;5.25;1.58;;;;;;;;;;5018404;28;20564;-81
2023/11/24 12:55:59;;;;;;;7.75;1.45;;;;;;;;;;5019082;28;20218;-80
2023/11/24 12:58:25;;;;;;;7.35;1.85;;;;;;;;;;5016029;28;20195;-80
2023/11/24 13:00:53;;;;;;;2.55;1.58;;;;;;;;;;5016778;28;20198;-80
2023/11/24 13:03:19;;;;;;;7.25;2.15;;;;;;;;;;5008940;28;20589;-81
2023/11/24 13:05:45;;;;;;;5.28;1.25;;;;;;;;;;5014523;28;20179;-81
2023/11/24 13:08:12;;;;;;;4.47;1.37;;;;;;;;;;5021596;28;20206;-79
2023/11/24 13:10:38;;;;;;;4.90;1.17;;;;;;;;;;5018857;28;20938;-81
2023/11/24 13:13:05;;;;;;;7.03;1.30;;;;;;;;;;5019566;28;20198;-80
2023/11/24 13:15:32;;;;;;;2.88;1.13;;;;;;;;;;5018998;28;20270;-79
2023/11/24 13:17:58;;;;;;;5.68;1.63;;;;;;;;;;5015279;28;20205;-78
2023/11/24 13:20:32;;;;;;;4.75;1.20;;;;;;;;;;5018432;28;20340;-81
2023/11/24 13:22:58;;;;;;;6.55;1.95;;;;;;;;;;5016043;28;20203;-79
2023/11/24 13:25:26;;;;;;;10.30;1.60;;;;;;;;;;5019592;28;20190;-81
2023/11/24 13:27:53;;;;;;;7.22;2.00;;;;;;;;;;5012118;28;20227;-80
2023/11/24 13:30:21;;;;;;;5.78;1.20;;;;;;;;;;5011719;28;20189;-79
2023/11/24 13:32:48;;;;;;;9.30;2.03;;;;;;;;;;5016956;28;20174;-79
2023/11/24 13:35:15;;;;;;;8.45;1.20;;;;;;;;;;5009044;28;20184;-81
2023/11/24 13:37:42;;;;;;;4.75;1.23;;;;;;;;;;5016528;28;20226;-79
2023/11/24 13:40:11;;;;;;;7.47;1.95;;;;;;;;;;5026378;28;20721;-78
2023/11/24 13:42:38;;;;;;;7.13;1.65;;;;;;;;;;5013618;28;20605;-77
2023/11/24 13:45:06;;;;;;;5.22;1.65;;;;;;;;;;5020451;28;20234;-78
2023/11/24 13:47:32;;;;;;;7.00;1.40;;;;;;;;;;5023865;28;20175;-79
2023/11/24 13:49:58;;;;;;;16.52;2.00;;;;;;;;;;5014207;28;20544;-79
2023/11/24 13:52:26;;;;;;;5.55;1.55;;;;;;;;;;5010769;28;20317;-78
2023/11/24 13:54:52;;;;;;;1.50;0.90;;;;;;;;;;5014078;28;20605;-78
2023/11/24 13:57:19;;;;;;;4.93;1.20;;;;;;;;;;5015685;28;20238;-79
2023/11/24 13:59:46;;;;;;;9.70;1.58;;;;;;;;;;5009179;28;20182;-79
2023/11/24 14:02:12;;;;;;;4.35;1.50;;;;;;;;;;5029943;28;20182;-78
2023/11/24 14:04:38;;;;;;;9.20;1.30;;;;;;;;;;5017124;28;20563;-78
2023/11/24 14:07:04;;;;;;;2.30;0.93;;;;;;;;;;5014426;28;20440;-78
2023/11/24 14:09:39;;;;;;;7.35;1.52;;;;;;;;;;5020365;28;20454;-79
2023/11/24 14:12:05;;;;;;;8.32;1.75;;;;;;;;;;5019761;28;20511;-79
2023/11/24 14:14:31;;;;;;;4.63;1.10;;;;;;;;;;5008563;28;20239;-79
2023/11/24 14:16:58;;;;;;;6.70;1.17;;;6.20;99.90;;;;;;5016437;28;20178;-78
2023/11/24 14:19:24;;;;;;;3.45;1.40;;;6.10;99.90;;;;;;5022260;28;20419;-78
2023/11/24 14:21:50;;;;;;;9.83;1.40;;;6.10;99.90;;;;;;5015346;28;20221;-77
2023/11/24 14:24:16;;;;;;;5.83;1.83;;;6.10;99.90;;;;;;5017124;28;20440;-78
2023/11/24 14:26:44;;;;;;;5.23;1.77;;;6.20;99.90;;;;;;5008368;28;21982;-77
2023/11/24 14:29:12;;;;;;;4.03;1.45;;;6.10;99.90;;;;;;5009880;28;20539;-78
2023/11/24 14:31:38;;;;;;;1.95;1.23;;;6.10;99.90;;;;;;5019504;28;20192;-78